Time;durP1;ratioP1;P1;durP2;ratioP2;P2;SDS_P1;SDS_P2;PMS_P1;PMS_P2;Temp;Humidity;BMP_temperature;BMP_pressure;BME280_temperature;BME280_humidity;BME280_pressure;Samples;Min_cycle;Max_cycle;Signal;HPM_P1;HPM_P2
2024/01/01 00:02:00;;;;;;;80.88;72.07;;;9.20;88.20;;;;;;12560957;28;20041;-75
2024/01/01 00:08:02;;;;;;;87.68;72.07;;;9.20;88.20;;;;;;12542245;28;20052;-75
2024/01/01 00:14:04;;;;;;;66.38;55.92;;;9.10;88.20;;;;;;12559438;28;20029;-75
2024/01/01 00:20:07;;;;;;;56.30;49.58;;;9.10;88.30;;;;;;12560056;28;20430;-74
2024/01/01 00:26:10;;;;;;;90.82;72.15;;;9.00;88.40;;;;;;12558375;28;20028;-73
2024/01/01 00:32:13;;;;;;;81.90;66.85;;;9.00;88.50;;;;;;12591293;28;20025;-72
2024/01/01 00:38:16;;;;;;;61.42;54.80;;;8.90;88.60;;;;;;12558672;28;20434;-73
2024/01/01 00:44:18;;;;;;;51.40;41.70;;;8.90;88.70;;;;;;12557064;28;20033;-73
2024/01/01 00:50:20;;;;;;;65.95;56.72;;;9.00;88.60;;;;;;12557904;28;20041;-73
2024/01/01 00:56:22;;;;;;;45.65;40.97;;;9.10;88.60;;;;;;12589725;28;20037;-74
2024/01/01 01:02:23;;;;;;;43.15;38.80;;;9.10;88.60;;;;;;12573681;28;20399;-74
2024/01/01 01:08:25;;;;;;;35.05;31.35;;;9.10;88.60;;;;;;12557006;28;20037;-74
2024/01/01 01:14:46;;;;;;;40.65;35.53;;;9.20;88.60;;;;;;12555575;28;20385;-74
2024/01/01 01:20:48;;;;;;;32.25;27.95;;;9.20;88.50;;;;;;12571923;28;20032;-75
2024/01/01 01:27:11;;;;;;;30.75;27.52;;;9.10;88.40;;;;;;12554801;28;20044;-74
2024/01/01 01:33:12;;;;;;;29.75;25.80;;;9.10;88.50;;;;;;12538291;28;20378;-75
2024/01/01 01:39:14;;;;;;;31.95;28.85;;;9.10;88.50;;;;;;12537967;28;20048;-75
2024/01/01 01:45:15;;;;;;;34.85;30.42;;;9.10;88.50;;;;;;12555408;28;20032;-75
2024/01/01 01:51:17;;;;;;;27.92;24.90;;;9.10;88.50;;;;;;12555189;28;20033;-75
2024/01/01 01:57:19;;;;;;;24.70;19.15;;;9.10;88.40;;;;;;12554123;28;20045;-74
2024/01/01 02:03:22;;;;;;;30.88;25.35;;;9.10;88.40;;;;;;12587056;28;20044;-75
2024/01/01 02:09:23;;;;;;;44.88;40.75;;;9.10;88.40;;;;;;12554463;28;20040;-75
2024/01/01 02:15:25;;;;;;;31.77;27.52;;;9.10;88.30;;;;;;12553169;28;20081;-75
2024/01/01 02:21:27;;;;;;;25.33;20.42;;;9.10;88.30;;;;;;12552915;28;20033;-75
2024/01/01 02:27:30;;;;;;;25.05;20.95;;;9.00;88.30;;;;;;12552309;28;20032;-75
2024/01/01 02:33:31;;;;;;;31.08;22.80;;;9.00;88.40;;;;;;12552643;28;20025;-74
2024/01/01 02:39:33;;;;;;;28.30;25.67;;;8.90;88.30;;;;;;12560334;28;20369;-75
2024/01/01 02:45:34;;;;;;;29.70;23.00;;;8.90;88.30;;;;;;12563664;28;20357;-75
2024/01/01 02:51:42;;;;;;;41.58;36.97;;;8.80;88.40;;;;;;12545899;28;20044;-75
2024/01/01 02:57:43;;;;;;;33.83;28.30;;;8.80;88.50;;;;;;12595198;28;20037;-75
2024/01/01 03:03:45;;;;;;;44.33;33.35;;;8.70;88.50;;;;;;12544893;28;20049;-74
2024/01/01 03:09:49;;;;;;;61.38;42.90;;;8.70;88.50;;;;;;12594812;28;20036;-74
2024/01/01 03:15:51;;;;;;;38.65;32.28;;;8.70;88.60;;;;;;12595307;28;20370;-74
2024/01/01 03:21:52;;;;;;;40.88;32.40;;;8.70;88.50;;;;;;12561495;28;20037;-75
2024/01/01 03:27:55;;;;;;;44.65;33.40;;;8.70;88.50;;;;;;12562352;28;20350;-71
2024/01/01 03:33:56;;;;;;;45.55;31.63;;;8.60;88.50;;;;;;12560984;28;20338;-72
2024/01/01 03:39:58;;;;;;;44.50;33.78;;;8.60;88.50;;;;;;12560665;28;20037;-71
2024/01/01 03:46:00;;;;;;;42.90;35.72;;;8.60;88.40;;;;;;12593250;28;20361;-72
2024/01/01 03:52:01;;;;;;;42.50;35.75;;;8.60;88.30;;;;;;12541547;28;20033;-72
2024/01/01 03:58:03;;;;;;;42.50;35.70;;;8.60;88.20;;;;;;12592695;28;20032;-71
2024/01/01 04:04:06;;;;;;;37.00;32.58;;;8.50;88.20;;;;;;12558855;28;20041;-72
2024/01/01 04:10:09;;;;;;;45.80;34.15;;;8.50;88.10;;;;;;12559739;28;20037;-71
2024/01/01 04:16:11;;;;;;;35.63;31.77;;;8.50;88.10;;;;;;12559549;28;20032;-75
2024/01/01 04:22:13;;;;;;;41.30;33.15;;;8.40;88.00;;;;;;12559280;28;20029;-75
2024/01/01 04:28:15;;;;;;;40.55;34.17;;;8.50;88.00;;;;;;12591194;28;20037;-75
2024/01/01 04:34:16;;;;;;;39.15;29.20;;;8.40;87.90;;;;;;12591288;28;20433;-75
2024/01/01 04:40:20;;;;;;;45.00;40.30;;;8.40;87.90;;;;;;12573818;28;20033;-75
2024/01/01 04:46:21;;;;;;;26.33;23.20;;;8.40;88.00;;;;;;12558103;28;20040;-75
2024/01/01 04:52:23;;;;;;;21.52;19.00;;;8.40;88.00;;;;;;12557887;28;20430;-75
2024/01/01 04:58:24;;;;;;;25.85;22.40;;;8.40;88.00;;;;;;12556950;28;20041;-75
2024/01/01 05:04:26;;;;;;;20.33;17.17;;;8.40;87.90;;;;;;12556502;28;20048;-75
2024/01/01 05:10:28;;;;;;;18.33;16.15;;;8.40;88.10;;;;;;12538795;28;20040;-75
2024/01/01 05:16:29;;;;;;;20.73;17.15;;;8.30;88.00;;;;;;12555188;28;20441;-75
2024/01/01 05:22:31;;;;;;;14.00;12.13;;;8.30;88.10;;;;;;12556107;28;20345;-75
2024/01/01 05:28:33;;;;;;;15.30;13.27;;;8.40;87.90;;;;;;12555806;28;20048;-75
2024/01/01 05:34:34;;;;;;;21.05;17.13;;;8.30;87.90;;;;;;12555573;28;20025;-75
2024/01/01 05:40:38;;;;;;;17.85;15.60;;;8.20;87.90;;;;;;12555371;28;20033;-75
2024/01/01 05:46:40;;;;;;;24.65;20.63;;;8.20;87.80;;;;;;12570503;28;20033;-75
2024/01/01 05:52:42;;;;;;;20.63;18.63;;;8.10;87.80;;;;;;12554118;28;20051;-74
2024/01/01 05:58:43;;;;;;;29.88;27.02;;;8.00;87.80;;;;;;12553759;28;20052;-75
2024/01/01 06:04:45;;;;;;;22.58;20.45;;;8.00;88.00;;;;;;12554639;28;20099;-75
2024/01/01 06:10:46;;;;;;;23.75;21.23;;;8.20;88.10;;;;;;12553675;28;20029;-75
2024/01/01 06:16:48;;;;;;;24.33;21.15;;;8.30;87.60;;;;;;12554306;28;20033;-75
2024/01/01 06:22:49;;;;;;;17.80;15.90;;;8.20;87.60;;;;;;12554124;28;20029;-75
2024/01/01 06:28:51;;;;;;;20.73;18.42;;;8.50;87.70;;;;;;12565953;28;20033;-75
2024/01/01 06:34:53;;;;;;;24.88;22.05;;;8.40;87.30;;;;;;12603677;28;20032;-75
2024/01/01 06:40:54;;;;;;;28.42;25.52;;;8.30;87.50;;;;;;12603499;28;20468;-75
2024/01/01 06:46:56;;;;;;;21.63;19.42;;;8.30;87.60;;;;;;12585571;28;20043;-75
2024/01/01 06:52:58;;;;;;;20.67;17.80;;;8.30;87.40;;;;;;12603285;28;20036;-75
2024/01/01 06:58:59;;;;;;;22.75;19.38;;;8.40;87.70;;;;;;12609520;22;20453;-75
2024/01/01 07:05:01;;;;;;;19.73;17.70;;;8.30;87.50;;;;;;12647427;28;20032;-75
2024/01/01 07:11:02;;;;;;;21.20;16.25;;;8.30;87.40;;;;;;12651795;28;20380;-75
2024/01/01 07:17:04;;;;;;;17.60;15.63;;;8.50;87.60;;;;;;12651637;28;20069;-75
2024/01/01 07:23:07;;;;;;;19.13;14.38;;;8.60;87.40;;;;;;12657986;28;20056;-75
2024/01/01 07:29:08;;;;;;;28.63;26.05;;;8.50;87.00;;;;;;12661867;28;20035;-75
2024/01/01 07:35:10;;;;;;;18.85;17.08;;;8.50;87.40;;;;;;12661689;28;20436;-72
2024/01/01 07:41:11;;;;;;;18.08;15.93;;;8.50;87.00;;;;;;12642928;28;20044;-72
2024/01/01 07:47:15;;;;;;;18.92;17.05;;;8.40;87.40;;;;;;12659773;28;20320;-74
2024/01/01 07:53:17;;;;;;;20.65;18.48;;;8.20;87.20;;;;;;12677185;28;20344;-75
2024/01/01 07:59:19;;;;;;;19.85;17.77;;;8.50;87.80;;;;;;12658635;28;20055;-75
2024/01/01 08:05:22;;;;;;;26.23;23.65;;;8.70;87.50;;;;;;12650117;28;20047;-74
2024/01/01 08:11:26;;;;;;;20.90;18.50;;;8.90;87.40;;;;;;12658746;28;20035;-74
2024/01/01 08:17:28;;;;;;;22.90;20.52;;;8.80;87.00;;;;;;12659634;28;20035;-75
2024/01/01 08:23:29;;;;;;;22.30;17.35;;;8.50;87.10;;;;;;12659427;28;20036;-74
2024/01/01 08:29:31;;;;;;;29.95;23.40;;;8.30;87.30;;;;;;12640393;28;20044;-74
2024/01/01 08:35:32;;;;;;;81.07;30.17;;;8.20;87.60;;;;;;12674272;28;20036;-75
2024/01/01 08:41:34;;;;;;;63.88;59.60;;;8.10;87.60;;;;;;12658457;28;20043;-75
2024/01/01 08:47:36;;;;;;;33.85;30.48;;;8.20;88.10;;;;;;12659067;28;20044;-72
2024/01/01 08:53:37;;;;;;;27.15;24.75;;;8.60;88.10;;;;;;12657824;28;20035;-72
2024/01/01 08:59:39;;;;;;;50.65;46.10;;;8.90;87.80;;;;;;12657577;28;20054;-72
2024/01/01 09:05:41;;;;;;;26.95;24.35;;;8.90;87.90;;;;;;12657247;28;20440;-71
2024/01/01 09:11:43;;;;;;;42.00;38.92;;;9.00;87.90;;;;;;12655704;28;20046;-72
2024/01/01 09:17:45;;;;;;;27.60;24.60;;;9.10;88.30;;;;;;12656898;28;20035;-72
2024/01/01 09:23:47;;;;;;;29.30;26.52;;;9.20;88.10;;;;;;12655226;28;20040;-72
2024/01/01 09:29:48;;;;;;;35.50;32.58;;;9.20;88.30;;;;;;12656150;28;20036;-72
2024/01/01 09:35:52;;;;;;;54.90;51.38;;;9.30;88.40;;;;;;12655819;28;20027;-71
2024/01/01 09:42:06;;;;;;;25.40;22.67;;;9.40;88.50;;;;;;12656646;28;20288;-72
2024/01/01 09:48:09;;;;;;;77.60;72.85;;;9.60;88.80;;;;;;12654632;28;20040;-73
2024/01/01 09:54:11;;;;;;;47.10;43.75;;;9.50;88.00;;;;;;12653952;28;20032;-74
2024/01/01 10:00:35;;;;;;;65.30;61.70;;;9.40;88.70;;;;;;12654771;28;20039;-74
2024/01/01 10:06:38;;;;;;;52.95;49.20;;;9.50;88.70;;;;;;12653498;28;20360;-75
2024/01/01 10:12:45;;;;;;;103.35;98.65;;;9.60;88.70;;;;;;12653320;28;20032;-72
2024/01/01 10:18:55;;;;;;;72.95;68.68;;;9.80;88.80;;;;;;12652661;28;20444;-72
2024/01/01 10:25:11;;;;;;;89.50;84.38;;;9.90;88.60;;;;;;12652928;28;20340;-72
2024/01/01 10:31:15;;;;;;;77.63;73.15;;;9.90;88.50;;;;;;12652542;28;20118;-72
2024/01/01 10:37:19;;;;;;;78.93;74.53;;;10.10;88.60;;;;;;12636224;28;20042;-72
2024/01/01 10:43:28;;;;;;;35.10;32.25;;;10.10;88.60;;;;;;12652413;28;20050;-72
2024/01/01 10:49:31;;;;;;;;;;;10.20;88.40;;;;;;12653887;28;20036;-72
2024/01/01 10:55:46;;;;;;;115.70;110.00;;;10.10;88.20;;;;;;12653265;28;19908;-72
2024/01/01 11:01:50;;;;;;;53.42;49.78;;;10.10;88.60;;;;;;12662963;28;20027;-72
2024/01/01 11:07:52;;;;;;;116.88;111.28;;;10.00;88.40;;;;;;12638158;28;20033;-72
2024/01/01 11:13:55;;;;;;;47.10;43.65;;;9.90;88.50;;;;;;12612233;28;20039;-72
2024/01/01 11:19:57;;;;;;;30.63;28.02;;;9.90;88.60;;;;;;12612037;28;20441;-72
2024/01/01 11:25:58;;;;;;;100.75;95.88;;;9.90;88.90;;;;;;12610626;28;20028;-72
2024/01/01 11:32:01;;;;;;;115.82;110.07;;;10.20;88.90;;;;;;12611455;28;20391;-72
2024/01/01 11:38:08;;;;;;;79.93;75.57;;;10.00;88.50;;;;;;12611169;28;20032;-72
2024/01/01 11:44:14;;;;;;;136.63;130.83;;;10.20;89.00;;;;;;12611018;28;20035;-72
2024/01/01 11:50:20;;;;;;;127.95;122.28;;;10.40;88.70;;;;;;12610653;28;20275;-72
2024/01/01 11:56:25;;;;;;;111.15;106.18;;;10.50;88.50;;;;;;12610368;28;20449;-72
2024/01/01 12:02:28;;;;;;;121.60;116.43;;;10.60;88.40;;;;;;12642739;28;20032;-72
2024/01/01 12:08:30;;;;;;;127.80;122.25;;;10.50;88.40;;;;;;12624248;28;20036;-72
2024/01/01 12:14:32;;;;;;;170.95;163.70;;;10.30;88.40;;;;;;12592485;28;20032;-72
2024/01/01 12:20:38;;;;;;;86.85;82.65;;;10.50;88.80;;;;;;12609286;28;20043;-72
2024/01/01 12:26:41;;;;;;;171.73;164.85;;;10.70;88.80;;;;;;12608876;28;20037;-72
2024/01/01 12:32:42;;;;;;;79.32;75.28;;;10.80;88.60;;;;;;12607406;28;20040;-75
2024/01/01 12:38:48;;;;;;;80.82;76.57;;;10.80;88.30;;;;;;12608399;28;20032;-75
2024/01/01 12:44:56;;;;;;;114.15;109.28;;;10.80;88.40;;;;;;12624348;28;20457;-72
2024/01/01 12:50:58;;;;;;;28.00;26.02;;;10.80;88.40;;;;;;12607731;28;20456;-73
2024/01/01 12:57:21;;;;;;;56.83;53.65;;;10.90;88.40;;;;;;12607398;28;20047;-72
2024/01/01 13:03:23;;;;;;;87.55;83.63;;;10.80;88.40;;;;;;12607208;28;20040;-74
2024/01/01 13:09:24;;;;;;;60.53;57.15;;;10.80;88.70;;;;;;12606736;28;20036;-74
2024/01/01 13:15:26;;;;;;;52.83;50.10;;;11.00;88.60;;;;;;12607347;28;20301;-75
2024/01/01 13:21:29;;;;;;;85.13;80.90;;;11.00;88.30;;;;;;12605963;28;20032;-74
2024/01/01 13:27:32;;;;;;;148.88;142.77;;;10.80;88.40;;;;;;12605054;28;20475;-74
2024/01/01 13:33:34;;;;;;;151.35;145.02;;;10.80;88.70;;;;;;12605687;28;20035;-74
2024/01/01 13:39:37;;;;;;;124.82;118.82;;;10.70;88.30;;;;;;12605395;28;20032;-74
2024/01/01 13:45:40;;;;;;;172.95;166.02;;;10.50;88.90;;;;;;12604175;28;20048;-74
2024/01/01 13:51:41;;;;;;;129.90;124.30;;;10.60;88.90;;;;;;12604838;28;20039;-74
2024/01/01 13:57:50;;;;;;;88.35;84.20;;;10.60;88.70;;;;;;12604632;28;20044;-73
2024/01/01 14:03:52;;;;;;;93.25;88.82;;;10.60;89.00;;;;;;12587362;28;20358;-74
2024/01/01 14:09:53;;;;;;;159.25;152.82;;;10.70;88.70;;;;;;12619875;28;20044;-74
2024/01/01 14:16:26;;;;;;;68.50;64.72;;;10.60;88.60;;;;;;12619959;28;20024;-72
2024/01/01 14:22:28;;;;;;;123.90;118.22;;;10.60;88.40;;;;;;12603290;28;20133;-72
2024/01/01 14:28:30;;;;;;;134.48;128.95;;;10.60;88.70;;;;;;12603771;28;20040;-72
2024/01/01 14:34:32;;;;;;;146.82;140.85;;;10.60;88.90;;;;;;12618656;28;20036;-72
2024/01/01 14:40:34;;;;;;;140.75;134.57;;;10.70;88.80;;;;;;12619310;28;20036;-72
2024/01/01 14:46:36;;;;;;;55.85;53.08;;;10.80;88.60;;;;;;12618948;28;20464;-72
2024/01/01 14:52:39;;;;;;;98.95;94.53;;;10.90;88.60;;;;;;12619709;28;20329;-72
2024/01/01 14:58:41;;;;;;;97.68;93.47;;;10.80;88.40;;;;;;12637456;22;20475;-73
2024/01/01 15:04:45;;;;;;;92.45;88.00;;;10.80;89.00;;;;;;12635718;28;20032;-70
2024/01/01 15:10:49;;;;;;;54.03;50.92;;;10.90;88.70;;;;;;12635541;28;20459;-74
2024/01/01 15:16:51;;;;;;;124.10;118.40;;;10.90;88.60;;;;;;12635019;28;20024;-74
2024/01/01 15:22:53;;;;;;;108.88;103.93;;;10.70;88.40;;;;;;12653221;28;20047;-74
2024/01/01 15:28:55;;;;;;;90.38;86.00;;;10.70;88.60;;;;;;12653060;28;20040;-74
2024/01/01 15:34:57;;;;;;;73.18;68.95;;;10.70;88.30;;;;;;12634878;28;20361;-74
2024/01/01 15:41:31;;;;;;;75.32;71.53;;;10.70;88.00;;;;;;12596780;28;20052;-74
2024/01/01 15:47:33;;;;;;;64.45;60.53;;;10.40;87.90;;;;;;12587547;28;20060;-74
2024/01/01 15:53:35;;;;;;;100.22;95.55;;;10.20;88.20;;;;;;12605221;28;20051;-74
2024/01/01 15:59:36;;;;;;;41.95;39.03;;;9.90;88.40;;;;;;12604997;28;20040;-74
2024/01/01 16:05:38;;;;;;;48.78;45.58;;;9.90;88.60;;;;;;12587886;28;20090;-74
2024/01/01 16:11:40;;;;;;;53.60;50.15;;;10.10;88.60;;;;;;12629204;28;20424;-74
2024/01/01 16:17:42;;;;;;;70.82;66.38;;;10.20;88.20;;;;;;12636141;28;20032;-74
2024/01/01 16:23:44;;;;;;;66.13;62.17;;;10.30;88.10;;;;;;12653343;28;20028;-74
2024/01/01 16:29:46;;;;;;;61.70;57.22;;;10.10;87.90;;;;;;12638230;28;20036;-74
2024/01/01 16:35:47;;;;;;;52.78;48.33;;;10.00;88.10;;;;;;12585318;28;20025;-74
2024/01/01 16:41:52;;;;;;;82.43;76.78;;;10.10;87.90;;;;;;12607978;28;20326;-74
2024/01/01 16:47:53;;;;;;;26.85;24.05;;;10.20;87.60;;;;;;12617807;28;20392;-74
2024/01/01 16:53:55;;;;;;;29.83;26.23;;;10.20;87.30;;;;;;12601960;28;20429;-74
2024/01/01 16:59:58;;;;;;;31.67;26.52;;;9.90;87.30;;;;;;12602030;28;20032;-74
2024/01/01 17:06:01;;;;;;;32.00;28.77;;;9.70;87.60;;;;;;12601245;28;20048;-71
2024/01/01 17:12:03;;;;;;;32.60;27.70;;;9.70;87.40;;;;;;12601065;28;20032;-72
2024/01/01 17:18:05;;;;;;;51.63;47.22;;;9.90;87.20;;;;;;12600731;28;20103;-71
2024/01/01 17:24:25;;;;;;;43.05;39.30;;;9.70;87.30;;;;;;12649215;28;20456;-72
2024/01/01 17:30:27;;;;;;;58.47;54.08;;;9.80;87.20;;;;;;12638273;28;20024;-71
2024/01/01 17:36:29;;;;;;;32.85;30.00;;;9.60;87.10;;;;;;12653695;28;20028;-70
2024/01/01 17:42:31;;;;;;;21.13;17.13;;;9.40;87.30;;;;;;12604514;28;20028;-71
2024/01/01 17:48:34;;;;;;;22.80;20.33;;;9.20;87.60;;;;;;12696258;28;20036;-71
2024/01/01 17:54:36;;;;;;;21.92;17.67;;;9.10;87.70;;;;;;12660474;28;20024;-71
2024/01/01 18:00:38;;;;;;;21.67;19.52;;;9.00;87.80;;;;;;12655363;28;20032;-70
2024/01/01 18:07:29;;;;;;;25.15;18.63;;;9.00;87.90;;;;;;12636133;28;20321;-74
2024/01/01 18:13:31;;;;;;;21.02;17.92;;;8.90;87.80;;;;;;12654942;28;20028;-71
2024/01/01 18:19:33;;;;;;;42.65;38.97;;;8.90;87.90;;;;;;12654913;28;20028;-72
2024/01/01 18:25:35;;;;;;;27.27;20.35;;;8.90;87.90;;;;;;12653903;28;20340;-73
2024/01/01 18:31:37;;;;;;;36.40;30.77;;;9.00;87.80;;;;;;12618772;28;20024;-75
2024/01/01 18:37:38;;;;;;;26.58;21.85;;;9.10;87.80;;;;;;12653845;28;20028;-73
2024/01/01 18:43:41;;;;;;;33.60;27.13;;;9.00;87.80;;;;;;12653707;28;20020;-73
2024/01/01 18:49:43;;;;;;;29.20;23.83;;;9.10;88.00;;;;;;12653466;28;20352;-73
2024/01/01 18:55:45;;;;;;;38.25;25.42;;;9.30;87.70;;;;;;12653162;28;20028;-73
2024/01/01 19:01:47;;;;;;;29.17;23.58;;;9.30;87.50;;;;;;12635156;28;20043;-73
2024/01/01 19:07:51;;;;;;;32.22;25.10;;;9.10;87.50;;;;;;12634894;28;20082;-73
2024/01/01 19:13:57;;;;;;;23.48;18.92;;;8.90;87.70;;;;;;12653012;28;20348;-73
2024/01/01 19:19:58;;;;;;;30.75;27.65;;;8.90;87.80;;;;;;12657469;28;20032;-74
2024/01/01 19:26:03;;;;;;;64.47;27.13;;;8.90;87.80;;;;;;12662194;28;20035;-73
2024/01/01 19:32:20;;;;;;;41.33;21.30;;;8.90;87.70;;;;;;12661958;28;20032;-74
2024/01/01 19:38:40;;;;;;;28.73;24.55;;;8.70;87.70;;;;;;12661739;28;20024;-71
2024/01/01 19:44:42;;;;;;;35.42;23.23;;;8.70;87.70;;;;;;12643453;28;20035;-70
2024/01/01 19:50:43;;;;;;;32.38;21.65;;;8.50;87.80;;;;;;12643133;28;20047;-71
2024/01/01 19:56:46;;;;;;;27.95;19.85;;;8.50;87.80;;;;;;12642684;28;20036;-70
2024/01/01 20:02:47;;;;;;;41.95;22.25;;;8.50;87.90;;;;;;12661099;28;20035;-71
2024/01/01 20:08:49;;;;;;;28.60;23.90;;;8.60;88.00;;;;;;12660145;28;20043;-71
2024/01/01 20:14:50;;;;;;;23.65;14.90;;;8.80;88.00;;;;;;12625789;28;20035;-71
2024/01/01 20:20:52;;;;;;;18.20;14.77;;;8.90;87.80;;;;;;12642181;28;20036;-71
2024/01/01 20:26:55;;;;;;;38.10;25.15;;;8.90;87.70;;;;;;12641461;28;20036;-72
2024/01/01 20:33:51;;;;;;;20.63;16.52;;;8.90;87.70;;;;;;12657913;28;20035;-72
2024/01/01 20:39:53;;;;;;;21.58;16.85;;;8.80;87.70;;;;;;12641005;28;20035;-75
2024/01/01 20:45:54;;;;;;;29.95;17.67;;;8.70;87.60;;;;;;12658433;28;20028;-75
2024/01/01 20:51:56;;;;;;;33.22;17.80;;;8.70;87.70;;;;;;12658111;28;20040;-76
2024/01/01 20:58:21;;;;;;;29.20;19.77;;;8.50;87.70;;;;;;12639803;28;20035;-72
2024/01/01 21:05:12;;;;;;;34.63;22.85;;;8.40;87.80;;;;;;12601598;28;20047;-72
2024/01/01 21:11:14;;;;;;;33.95;19.65;;;8.20;87.70;;;;;;12652120;28;20369;-72
2024/01/01 21:17:15;;;;;;;22.42;20.02;;;8.20;87.90;;;;;;12651506;28;20157;-72
2024/01/01 21:23:18;;;;;;;20.17;17.42;;;8.20;87.90;;;;;;12651914;28;20028;-72
2024/01/01 21:29:43;;;;;;;26.45;22.50;;;8.30;87.80;;;;;;12534181;28;20041;-72
2024/01/01 21:35:44;;;;;;;57.50;24.75;;;8.30;87.80;;;;;;12551223;28;20037;-72
2024/01/01 21:41:46;;;;;;;31.52;23.77;;;8.20;87.70;;;;;;12550189;28;20048;-73
2024/01/01 21:47:47;;;;;;;40.35;26.35;;;8.10;87.60;;;;;;12550131;28;20051;-73
2024/01/01 21:53:49;;;;;;;25.17;20.38;;;8.30;88.10;;;;;;12517067;28;20037;-73
2024/01/01 21:59:51;;;;;;;24.13;20.48;;;8.30;87.80;;;;;;12549595;28;20133;-73
2024/01/01 22:05:53;;;;;;;73.68;29.17;;;8.30;87.80;;;;;;12532663;28;20041;-75
2024/01/01 22:11:55;;;;;;;49.50;30.70;;;8.20;87.60;;;;;;12532434;28;20048;-75
2024/01/01 22:18:17;;;;;;;28.20;25.52;;;8.00;87.50;;;;;;12549039;28;20029;-75
2024/01/01 22:24:18;;;;;;;25.45;21.38;;;8.10;87.90;;;;;;12548860;28;20041;-75
2024/01/01 22:30:21;;;;;;;33.35;27.15;;;8.20;87.90;;;;;;12527892;28;20042;-75
2024/01/01 22:36:48;;;;;;;26.77;23.92;;;8.20;87.70;;;;;;12482878;28;20033;-75
2024/01/01 22:42:50;;;;;;;29.00;25.88;;;8.00;87.50;;;;;;12531790;28;20578;-73
2024/01/01 22:48:51;;;;;;;28.10;25.15;;;7.90;87.80;;;;;;12548105;28;20061;-75
2024/01/01 22:54:58;;;;;;;19.40;17.30;;;8.20;88.20;;;;;;12601790;28;20077;-75
2024/01/01 23:01:04;;;;;;;16.80;13.68;;;8.60;87.80;;;;;;12522502;22;20053;-75
2024/01/01 23:07:06;;;;;;;21.08;17.35;;;8.60;87.40;;;;;;12513713;28;20372;-75
2024/01/01 23:13:09;;;;;;;40.45;25.00;;;8.40;87.50;;;;;;12513355;28;20041;-75
2024/01/01 23:20:20;;;;;;;26.40;24.13;;;8.10;87.30;;;;;;12511998;28;20041;-75
2024/01/01 23:26:22;;;;;;;25.58;23.38;;;7.80;87.50;;;;;;12393225;28;20455;-75
2024/01/01 23:32:24;;;;;;;36.58;25.48;;;7.90;87.80;;;;;;12409407;28;20046;-75
2024/01/01 23:38:25;;;;;;;26.95;24.13;;;7.90;87.60;;;;;;12408898;28;20038;-73
2024/01/01 23:44:27;;;;;;;27.13;24.73;;;7.80;87.60;;;;;;12408569;28;20049;-72
2024/01/01 23:50:29;;;;;;;33.30;29.65;;;7.60;87.50;;;;;;12408383;28;20348;-73
2024/01/01 23:56:31;;;;;;;30.38;27.05;;;7.50;87.60;;;;;;12408029;28;20057;-73
